Time;durP1;ratioP1;P1;durP2;ratioP2;P2;SDS_P1;SDS_P2;PMS_P1;PMS_P2;Temp;Humidity;BMP_temperature;BMP_pressure;BME280_temperature;BME280_humidity;BME280_pressure;Samples;Min_cycle;Max_cycle;Signal;HPM_P1;HPM_P2
2021/05/11 00:02:22;;;;;;;;;;;;;;;19.35;28.56;101076.66;1842382;78;20210;-79
2021/05/11 00:04:49;;;;;;;;;;;;;;;19.34;28.41;101075.48;1842293;78;20243;-78
2021/05/11 00:07:16;;;;;;;;;;;;;;;19.33;28.34;101076.00;1842492;78;20195;-78
2021/05/11 00:09:43;;;;;;;;;;;;;;;19.35;28.22;101073.94;1843599;78;20234;-78
2021/05/11 00:12:10;;;;;;;;;;;;;;;19.33;28.21;101076.00;1843272;78;20227;-76
2021/05/11 00:14:37;;;;;;;;;;;;;;;19.33;28.28;101076.52;1842442;78;20476;-78
2021/05/11 00:17:04;;;;;;;;;;;;;;;19.32;28.45;101078.92;1842423;77;20210;-78
2021/05/11 00:19:34;;;;;;;;;;;;;;;19.32;28.64;101070.78;1842351;78;20210;-78
2021/05/11 00:22:01;;;;;;;;;;;;;;;19.33;28.62;101061.58;1842602;78;20476;-79
2021/05/11 00:24:27;;;;;;;;;;;;;;;19.34;28.65;101060.53;1842549;78;20250;-79
2021/05/11 00:26:54;;;;;;;;;;;;;;;19.34;28.62;101061.38;1842656;78;20238;-79
2021/05/11 00:29:21;;;;;;;;;;;;;;;19.34;28.52;101051.86;1842467;78;20214;-77
2021/05/11 00:31:48;;;;;;;;;;;;;;;19.33;28.36;101052.91;1842247;78;20218;-77
2021/05/11 00:34:15;;;;;;;;;;;;;;;19.32;28.31;101045.81;1842331;78;20563;-76
2021/05/11 00:36:42;;;;;;;;;;;;;;;19.33;28.26;101048.00;1842341;78;20488;-76
2021/05/11 00:39:09;;;;;;;;;;;;;;;19.29;28.24;101042.65;1842248;78;20229;-77
2021/05/11 00:41:36;;;;;;;;;;;;;;;19.28;28.14;101036.91;1842279;78;20218;-77
2021/05/11 00:44:22;;;;;;;;;;;;;;;19.26;28.14;101027.61;1842203;78;20203;-77
2021/05/11 00:47:00;;;;;;;;;;;;;;;19.25;28.22;101023.19;1842569;78;20219;-78
2021/05/11 00:49:25;;;;;;;;;;;;;;;19.24;28.51;101022.88;1841998;78;20286;-78
2021/05/11 00:51:52;;;;;;;;;;;;;;;19.23;28.81;101028.00;1842392;78;20500;-77
2021/05/11 00:54:19;;;;;;;;;;;;;;;19.22;28.99;101027.17;1842223;77;20238;-77
2021/05/11 00:56:46;;;;;;;;;;;;;;;19.23;29.07;101020.69;1842221;78;20261;-80
2021/05/11 00:59:19;;;;;;;;;;;;;;;19.23;29.12;101019.33;1842605;78;20250;-78
2021/05/11 01:01:44;;;;;;;;;;;;;;;19.22;29.11;101017.66;1842352;77;20226;-78
2021/05/11 01:04:12;;;;;;;;;;;;;;;19.21;29.19;101020.56;1842125;78;20260;-78
2021/05/11 01:06:40;;;;;;;;;;;;;;;19.19;29.26;101016.70;1842241;78;20210;-78
2021/05/11 01:09:08;;;;;;;;;;;;;;;19.20;29.29;101011.58;1842499;78;20227;-78
2021/05/11 01:11:36;;;;;;;;;;;;;;;19.20;29.28;101010.74;1842210;78;20308;-78
2021/05/11 01:14:04;;;;;;;;;;;;;;;19.19;29.23;101005.83;1842384;78;20210;-79
2021/05/11 01:16:32;;;;;;;;;;;;;;;19.19;29.30;100996.33;1819471;78;20489;-77
2021/05/11 01:19:11;;;;;;;;;;;;;;;19.19;29.41;100994.97;1842446;78;20483;-77
2021/05/11 01:26:45;;;;;;;;;;;;;;;19.20;29.64;101008.86;1842380;77;20227;-78
2021/05/11 01:29:19;;;;;;;;;;;;;;;19.17;29.65;101010.64;1841094;77;20432;-78
2021/05/11 01:50:35;;;;;;;;;;;;;;;19.14;29.91;101002.88;1840949;78;20314;-77
2021/05/11 02:23:03;;;;;;;;;;;;;;;19.09;29.38;101008.09;1834228;78;20242;-77
2021/05/11 02:25:30;;;;;;;;;;;;;;;19.10;29.57;101007.04;1833870;78;20214;-77
2021/05/11 02:27:57;;;;;;;;;;;;;;;19.11;29.76;101003.27;1833831;78;20218;-77
2021/05/11 02:30:24;;;;;;;;;;;;;;;19.11;29.75;101000.56;1833710;78;20211;-78
2021/05/11 02:32:51;;;;;;;;;;;;;;;19.11;29.69;101007.35;1813148;78;20492;-78
2021/05/11 02:35:18;;;;;;;;;;;;;;;19.11;29.53;101007.35;1834303;78;20200;-77
2021/05/11 02:37:46;;;;;;;;;;;;;;;19.12;29.42;101000.04;1834156;78;20270;-78
2021/05/11 02:40:14;;;;;;;;;;;;;;;19.12;29.24;100991.89;1834477;78;20139;-78
2021/05/11 02:42:44;;;;;;;;;;;;;;;19.11;29.12;100982.91;1834162;78;20231;-78
2021/05/11 02:45:13;;;;;;;;;;;;;;;19.12;29.07;100987.82;1834210;78;20214;-78
2021/05/11 02:47:50;;;;;;;;;;;;;;;19.11;29.05;100984.27;1834042;78;20218;-77
2021/05/11 02:50:25;;;;;;;;;;;;;;;19.10;29.01;100981.24;1833581;78;20567;-77
2021/05/11 02:52:51;;;;;;;;;;;;;;;19.10;29.12;100973.63;1834263;78;20531;-79
2021/05/11 02:55:19;;;;;;;;;;;;;;;19.11;29.22;100969.33;1833970;78;20259;-78
2021/05/11 02:57:46;;;;;;;;;;;;;;;19.10;29.34;100974.45;1833553;78;20235;-79
2021/05/11 03:00:17;;;;;;;;;;;;;;;19.10;29.34;100974.45;1833748;78;20472;-79
2021/05/11 03:02:46;;;;;;;;;;;;;;;19.11;29.32;100967.98;1833010;78;20273;-78
2021/05/11 03:05:14;;;;;;;;;;;;;;;19.10;29.16;100969.02;1833117;78;20406;-79
2021/05/11 03:07:41;;;;;;;;;;;;;;;19.06;29.04;100965.03;1833019;78;20547;-79
2021/05/11 03:10:10;;;;;;;;;;;;;;;19.05;29.10;100963.36;1833182;78;20222;-78
2021/05/11 03:12:37;;;;;;;;;;;;;;;19.03;29.19;100968.17;1833804;78;20199;-78
2021/05/11 03:15:05;;;;;;;;;;;;;;;19.02;29.31;100971.91;1832886;78;20254;-78
2021/05/11 03:17:32;;;;;;;;;;;;;;;19.00;29.37;100969.40;1832794;78;20214;-79
2021/05/11 03:19:59;;;;;;;;;;;;;;;18.98;29.26;100981.48;1834256;78;20203;-80
2021/05/11 03:22:26;;;;;;;;;;;;;;;18.98;29.22;100974.17;1834057;78;20297;-79
2021/05/11 03:24:53;;;;;;;;;;;;;;;18.99;29.40;100970.97;1833783;78;20215;-79
2021/05/11 03:27:21;;;;;;;;;;;;;;;19.00;29.49;100978.06;1833896;78;20301;-78
2021/05/11 03:29:48;;;;;;;;;;;;;;;19.02;29.52;100977.33;1834297;78;20251;-78
2021/05/11 03:32:15;;;;;;;;;;;;;;;19.03;29.55;100969.53;1833506;78;20255;-79
2021/05/11 03:34:41;;;;;;;;;;;;;;;19.03;29.51;100977.67;1810147;77;20228;-79
2021/05/11 03:37:08;;;;;;;;;;;;;;;19.05;29.59;100974.22;1851257;77;20273;-79
2021/05/11 03:39:39;;;;;;;;;;;;;;;19.08;29.62;100979.27;1850221;77;20293;-78
2021/05/11 03:44:45;;;;;;;;;;;;;;;19.11;29.74;100970.69;1850804;77;20573;-78
2021/05/11 03:47:13;;;;;;;;;;;;;;;19.11;29.69;100974.77;1851330;77;20281;-77
2021/05/11 03:49:48;;;;;;;;;;;;;;;19.17;29.86;100969.91;1805331;77;20310;-76
2021/05/11 03:52:31;;;;;;;;;;;;;;;19.19;30.04;100965.09;1789652;79;20224;-79
2021/05/11 03:55:08;;;;;;;;;;;;;;;19.19;30.12;100959.66;1895536;74;20191;-81
2021/05/11 03:57:42;;;;;;;;;;;;;;;19.18;30.18;100955.28;1892105;76;20222;-78
2021/05/11 04:00:16;;;;;;;;;;;;;;;19.21;30.29;100954.02;1807017;77;20222;-79
2021/05/11 04:02:51;;;;;;;;;;;;;;;19.23;30.23;100951.95;1814551;77;20257;-78
2021/05/11 04:05:27;;;;;;;;;;;;;;;19.25;30.19;100952.58;1814866;77;20151;-78
2021/05/11 04:08:01;;;;;;;;;;;;;;;19.29;30.37;100957.09;1790799;77;20230;-78
2021/05/11 04:16:13;;;;;;;;;;;;;;;19.36;30.22;100953.89;1798404;77;20191;-78
2021/05/11 04:18:44;;;;;;;;;;;;;;;19.37;30.25;100948.77;1837264;77;20189;-77
2021/05/11 04:21:18;;;;;;;;;;;;;;;19.34;30.13;100957.31;1830027;76;20188;-76
2021/05/11 04:24:04;;;;;;;;;;;;;;;19.28;30.26;100945.91;1818243;77;20261;-77
2021/05/11 04:26:46;;;;;;;;;;;;;;;19.34;30.25;100945.09;1811751;77;20313;-78
2021/05/11 04:29:20;;;;;;;;;;;;;;;19.36;30.33;100941.66;1865715;76;20336;-77
2021/05/11 04:31:54;;;;;;;;;;;;;;;19.37;30.43;100945.53;1838113;77;20304;-76
2021/05/11 04:34:28;;;;;;;;;;;;;;;19.38;30.45;100944.48;1798494;77;20268;-77
2021/05/11 04:37:02;;;;;;;;;;;;;;;19.38;30.37;100936.33;1801471;78;20147;-77
2021/05/11 04:39:43;;;;;;;;;;;;;;;19.39;30.31;100929.02;1811905;77;20309;-79
2021/05/11 04:42:17;;;;;;;;;;;;;;;19.39;30.31;100930.38;1834837;77;20258;-79
2021/05/11 04:44:53;;;;;;;;;;;;;;;19.37;30.26;100928.39;1791205;79;20265;-78
2021/05/11 04:50:05;;;;;;;;;;;;;;;19.38;30.31;100931.42;1846476;76;21211;-78
2021/05/11 04:52:46;;;;;;;;;;;;;;;19.38;30.40;100938.21;1855910;75;20213;-78
2021/05/11 04:55:20;;;;;;;;;;;;;;;19.38;30.58;100927.34;1821761;77;20200;-78
2021/05/11 04:57:55;;;;;;;;;;;;;;;19.38;30.63;100932.78;1799975;77;20267;-79
2021/05/11 05:00:29;;;;;;;;;;;;;;;19.35;30.72;100927.74;1813209;79;20231;-80
2021/05/11 05:03:16;;;;;;;;;;;;;;;19.35;30.77;100918.23;1843600;77;20237;-78
2021/05/11 05:05:52;;;;;;;;;;;;;;;19.36;30.75;100919.94;1857679;76;20181;-79
2021/05/11 05:08:26;;;;;;;;;;;;;;;19.38;30.94;100925.46;1900053;72;20182;-78
2021/05/11 05:11:02;;;;;;;;;;;;;;;19.38;31.13;100922.75;1834357;75;20193;-78
2021/05/11 05:13:44;;;;;;;;;;;;;;;19.40;31.31;100927.47;1878583;74;20623;-78
2021/05/11 05:16:18;;;;;;;;;;;;;;;19.43;31.37;100928.40;1810973;78;20540;-78
2021/05/11 05:18:52;;;;;;;;;;;;;;;19.44;31.53;100931.95;1779377;79;20158;-79
2021/05/11 05:21:28;;;;;;;;;;;;;;;19.46;31.61;100932.08;1814694;77;20219;-80
2021/05/11 05:26:47;;;;;;;;;;;;;;;19.49;31.52;100930.84;1774832;78;20289;-79
2021/05/11 05:29:29;;;;;;;;;;;;;;;19.46;31.50;100928.52;1741169;80;20319;-79
2021/05/11 05:32:11;;;;;;;;;;;;;;;19.53;31.72;100923.95;1834801;75;20262;-78
2021/05/11 05:34:49;;;;;;;;;;;;;;;19.57;31.92;100919.75;1831536;76;20175;-81
2021/05/11 05:37:24;;;;;;;;;;;;;;;19.59;32.03;100914.97;1835573;77;20145;-78
2021/05/11 05:40:01;;;;;;;;;;;;;;;19.63;32.11;100910.00;1832902;77;20247;-79
2021/05/11 05:42:36;;;;;;;;;;;;;;;19.64;32.22;100905.70;1808868;77;20178;-79
2021/05/11 05:45:10;;;;;;;;;;;;;;;19.67;32.28;100901.23;1832850;77;20180;-78
2021/05/11 05:47:52;;;;;;;;;;;;;;;19.71;32.31;100900.27;1791492;77;20210;-79
2021/05/11 05:50:31;;;;;;;;;;;;;;;19.73;32.42;100902.27;1830465;77;21253;-79
2021/05/11 05:53:13;;;;;;;;;;;;;;;19.75;32.41;100909.68;1808474;78;20301;-79
2021/05/11 05:55:43;;;;;;;;;;;;;;;19.78;32.35;100908.44;1835577;77;20232;-80
2021/05/11 05:58:18;;;;;;;;;;;;;;;19.80;32.42;100911.78;1834611;77;20693;-79
2021/05/11 06:01:01;;;;;;;;;;;;;;;19.83;32.47;100913.56;1836792;77;20177;-80
2021/05/11 06:03:50;;;;;;;;;;;;;;;19.85;32.60;100903.33;1814055;76;20223;-80
2021/05/11 06:06:26;;;;;;;;;;;;;;;19.85;32.71;100907.91;1774868;79;20262;-79
2021/05/11 06:09:05;;;;;;;;;;;;;;;19.94;32.82;100902.09;1793717;78;20194;-79
2021/05/11 06:11:48;;;;;;;;;;;;;;;19.96;32.81;100896.42;1798209;78;20287;-80
2021/05/11 06:17:26;;;;;;;;;;;;;;;20.12;32.87;100900.09;1868517;75;20242;-79
2021/05/11 06:20:00;;;;;;;;;;;;;;;20.18;32.89;100894.33;1810209;77;20269;-78
2021/05/11 06:22:35;;;;;;;;;;;;;;;20.25;32.82;100891.06;1831096;77;20363;-80
2021/05/11 06:25:12;;;;;;;;;;;;;;;20.33;32.85;100876.41;1829717;77;20272;-79
2021/05/11 06:27:57;;;;;;;;;;;;;;;20.46;33.18;100873.66;1804029;77;20947;-79
2021/05/11 06:30:35;;;;;;;;;;;;;;;20.69;33.06;100882.20;1829133;77;20210;-81
2021/05/11 06:33:10;;;;;;;;;;;;;;;20.91;32.65;100874.59;1861316;75;20128;-79
2021/05/11 06:35:47;;;;;;;;;;;;;;;21.13;32.35;100868.31;1826983;77;20760;-78
2021/05/11 06:38:20;;;;;;;;;;;;;;;21.34;32.05;100864.97;1827651;77;20243;-79
2021/05/11 06:40:55;;;;;;;;;;;;;;;21.56;31.84;100862.20;1827399;77;20177;-79
2021/05/11 06:43:32;;;;;;;;;;;;;;;21.78;31.41;100856.68;1814997;77;20249;-78
2021/05/11 06:54:22;;;;;;;;;;;;;;;21.87;30.97;100850.95;1826370;77;20244;-78
2021/05/11 06:57:00;;;;;;;;;;;;;;;21.81;30.85;100844.52;1848274;74;20188;-79
2021/05/11 06:59:34;;;;;;;;;;;;;;;21.75;30.80;100846.20;1825074;77;20277;-81
2021/05/11 07:02:10;;;;;;;;;;;;;;;21.71;30.84;100835.97;1826744;77;20193;-79
2021/05/11 07:04:47;;;;;;;;;;;;;;;21.70;31.21;100840.59;1824734;77;20470;-78
2021/05/11 07:07:24;;;;;;;;;;;;;;;21.69;31.48;100843.02;1824541;77;20187;-80
2021/05/11 07:15:56;;;;;;;;;;;;;;;21.77;32.09;100828.28;1868408;74;20189;-78
2021/05/11 07:18:32;;;;;;;;;;;;;;;21.95;32.08;100834.31;1791506;78;20199;-77
2021/05/11 07:21:08;;;;;;;;;;;;;;;22.23;32.00;100841.52;1823763;76;20473;-80
2021/05/11 07:23:44;;;;;;;;;;;;;;;22.58;32.08;100831.91;1801236;78;20292;-80
2021/05/11 07:26:27;;;;;;;;;;;;;;;22.96;31.75;100820.19;1869703;75;20272;-79
2021/05/11 07:29:13;;;;;;;;;;;;;;;23.33;31.07;100804.22;1795574;78;20251;-79
2021/05/11 07:31:49;;;;;;;;;;;;;;;23.66;30.85;100801.80;1826238;77;20350;-79
2021/05/11 07:34:28;;;;;;;;;;;;;;;23.96;30.59;100809.09;1837595;75;20183;-78
2021/05/11 07:37:14;;;;;;;;;;;;;;;24.16;30.43;100804.06;1808357;77;20215;-79
2021/05/11 07:39:51;;;;;;;;;;;;;;;24.46;30.13;100800.37;1868113;75;20174;-80
2021/05/11 07:42:26;;;;;;;;;;;;;;;24.58;29.97;100797.08;1800378;77;20200;-80
2021/05/11 07:45:02;;;;;;;;;;;;;;;24.63;29.98;100784.84;1864900;75;20173;-81
2021/05/11 07:50:52;;;;;;;;;;;;;;;24.57;30.49;100793.19;1788785;77;20378;-80
2021/05/11 08:16:20;;;;;;;;;;;;;;;24.92;32.11;100767.03;1808607;77;20164;-79
2021/05/11 08:30:12;;;;;;;;;;;;;;;25.48;31.29;100755.19;1794626;78;20158;-79
2021/05/11 08:32:47;;;;;;;;;;;;;;;25.46;30.77;100753.77;1828121;77;20192;-80
2021/05/11 08:35:24;;;;;;;;;;;;;;;25.44;30.44;100755.94;1773857;78;20274;-79
2021/05/11 08:38:00;;;;;;;;;;;;;;;25.38;30.35;100741.28;1767873;78;20230;-78
2021/05/11 08:40:35;;;;;;;;;;;;;;;25.38;30.40;100748.69;1836259;75;20495;-79
2021/05/11 08:43:31;;;;;;;;;;;;;;;25.33;30.63;100745.86;1826217;77;20175;-78
2021/05/11 08:46:06;;;;;;;;;;;;;;;25.30;30.82;100734.33;1807129;76;20281;-79
2021/05/11 08:48:42;;;;;;;;;;;;;;;25.27;30.68;100729.88;1865359;75;20154;-80
2021/05/11 08:51:24;;;;;;;;;;;;;;;25.23;30.82;100730.08;1860150;75;20162;-78
2021/05/11 09:05:52;;;;;;;;;;;;;;;25.33;31.48;100714.33;1828944;77;20294;-78
2021/05/11 09:08:14;;;;;;;;;;;;;;;25.38;31.34;100713.03;1826650;77;20183;-78
2021/05/11 09:14:24;;;;;;;;;;;;;;;25.42;31.13;100712.28;1796636;78;20149;-78
2021/05/11 10:43:54;;;;;;;;;;;;;;;25.86;30.50;100617.75;1833515;77;20158;-78
2021/05/11 10:49:33;;;;;;;;;;;;;;;25.89;30.01;100632.86;1862799;75;20237;-78
2021/05/11 10:55:09;;;;;;;;;;;;;;;25.92;29.76;100617.27;1830392;77;20696;-79
2021/05/11 10:57:53;;;;;;;;;;;;;;;25.94;29.72;100619.22;1870322;75;20310;-79
2021/05/11 11:00:43;;;;;;;;;;;;;;;25.95;29.91;100611.27;1866457;75;20251;-80
2021/05/11 11:03:26;;;;;;;;;;;;;;;25.94;30.15;100603.59;1833299;77;20252;-78
2021/05/11 11:06:04;;;;;;;;;;;;;;;25.96;29.82;100601.95;1796816;78;20178;-77
2021/05/11 11:08:42;;;;;;;;;;;;;;;25.97;29.77;100606.34;1833683;77;20246;-78
2021/05/11 11:11:22;;;;;;;;;;;;;;;25.98;30.06;100602.50;1868307;75;20145;-79
2021/05/11 11:14:05;;;;;;;;;;;;;;;26.03;29.81;100602.05;1869571;75;20227;-81
2021/05/11 11:16:40;;;;;;;;;;;;;;;26.05;29.59;100603.14;1800842;78;20254;-77
2021/05/11 11:19:18;;;;;;;;;;;;;;;26.07;29.58;100606.45;1835222;77;20228;-81
2021/05/11 11:24:37;;;;;;;;;;;;;;;26.10;30.05;100596.34;1832405;77;20257;-80
2021/05/11 11:27:11;;;;;;;;;;;;;;;26.12;30.35;100594.18;1833122;77;20236;-79
2021/05/11 11:29:46;;;;;;;;;;;;;;;26.12;30.31;100590.06;1801265;78;20468;-80
2021/05/11 11:32:25;;;;;;;;;;;;;;;26.08;30.26;100596.33;1840633;75;20185;-79
2021/05/11 11:35:00;;;;;;;;;;;;;;;26.10;29.90;100585.91;1804182;79;20186;-79
2021/05/11 11:37:50;;;;;;;;;;;;;;;26.06;29.50;100589.16;1744252;80;20386;-80
2021/05/11 11:40:46;;;;;;;;;;;;;;;26.12;29.37;100579.08;1912958;74;20225;-78
2021/05/11 11:43:27;;;;;;;;;;;;;;;26.14;29.49;100573.32;1789813;78;20181;-78
2021/05/11 11:46:01;;;;;;;;;;;;;;;26.16;29.21;100569.77;1814808;77;20251;-79
2021/05/11 11:49:20;;;;;;;;;;;;;;;26.19;29.32;100575.57;1852284;75;20241;-79
2021/05/11 11:52:23;;;;;;;;;;;;;;;26.19;29.38;100560.47;1867051;75;20390;-80
2021/05/11 12:00:33;;;;;;;;;;;;;;;26.23;29.13;100564.36;1871965;76;20411;-80
2021/05/11 12:03:21;;;;;;;;;;;;;;;26.26;29.38;100565.22;1816083;76;20285;-79
2021/05/11 12:06:00;;;;;;;;;;;;;;;26.29;29.76;100571.55;1788905;77;20204;-79
2021/05/11 12:08:36;;;;;;;;;;;;;;;26.30;30.01;100570.48;1833646;77;20235;-78
2021/05/11 12:11:12;;;;;;;;;;;;;;;26.29;29.88;100578.41;1800921;78;20256;-79
2021/05/11 12:13:52;;;;;;;;;;;;;;;26.26;29.80;100571.27;1803547;78;20198;-78
2021/05/11 12:16:30;;;;;;;;;;;;;;;26.23;29.37;100577.27;1869842;75;20136;-79
2021/05/11 12:19:07;;;;;;;;;;;;;;;26.21;29.20;100570.67;1834056;77;20266;-79
2021/05/11 12:24:41;;;;;;;;;;;;;;;26.10;29.68;100573.00;1875073;75;20256;-79
2021/05/11 12:27:22;;;;;;;;;;;;;;;26.09;29.62;100585.08;1830546;76;20270;-79
2021/05/11 12:30:06;;;;;;;;;;;;;;;26.09;29.59;100573.27;1825017;77;20353;-79
2021/05/11 12:33:04;;;;;;;;;;;;;;;26.11;29.30;100576.03;1853194;75;20262;-79
2021/05/11 12:35:41;;;;;;;;;;;;;;;26.16;29.48;100580.23;1795800;78;20202;-80
2021/05/11 12:38:21;;;;;;;;;;;;;;;26.22;29.66;100583.30;1835372;77;20323;-78
2021/05/11 12:41:09;;;;;;;;;;;;;;;26.24;29.46;100562.44;1835901;77;20287;-79
2021/05/11 12:43:48;;;;;;;;;;;;;;;26.25;29.22;100563.58;1833325;77;20243;-79
2021/05/11 12:46:31;;;;;;;;;;;;;;;26.28;29.31;100569.90;1790310;78;20362;-78
2021/05/11 12:49:17;;;;;;;;;;;;;;;26.26;29.38;100554.23;1908052;74;20221;-79
2021/05/11 12:51:53;;;;;;;;;;;;;;;26.26;29.68;100567.97;1875332;75;20179;-81
2021/05/11 12:54:36;;;;;;;;;;;;;;;26.26;29.79;100566.59;1874941;75;20268;-80
2021/05/11 12:57:24;;;;;;;;;;;;;;;26.27;29.70;100560.01;1837188;77;20415;-77
2021/05/11 13:00:04;;;;;;;;;;;;;;;26.28;29.68;100561.66;1831496;77;20295;-80
2021/05/11 13:02:52;;;;;;;;;;;;;;;26.24;29.79;100567.38;1801302;78;20203;-80
2021/05/11 13:17:40;;;;;;;;;;;;;;;26.17;31.46;100575.56;1807078;77;20413;-78
2021/05/11 13:20:17;;;;;;;;;;;;;;;26.13;31.62;100579.36;1841394;76;20174;-81
2021/05/11 13:25:57;;;;;;;;;;;;;;;26.05;31.68;100574.33;1845352;76;20248;-79
2021/05/11 13:34:11;;;;;;;;;;;;;;;25.96;31.52;100582.19;1856210;76;20229;-79
2021/05/11 13:37:18;;;;;;;;;;;;;;;25.92;31.38;100578.84;1737484;81;20247;-80
2021/05/11 13:40:05;;;;;;;;;;;;;;;25.94;31.15;100576.69;1800260;78;20764;-79
2021/05/11 13:42:39;;;;;;;;;;;;;;;25.90;31.01;100583.22;1784624;78;20146;-80
2021/05/11 13:45:15;;;;;;;;;;;;;;;25.86;31.11;100579.33;1836344;77;20393;-79
2021/05/11 13:48:05;;;;;;;;;;;;;;;25.84;30.83;100573.25;1862870;76;20597;-81
2021/05/11 13:53:35;;;;;;;;;;;;;;;25.86;31.23;100573.02;1828293;77;20260;-79
2021/05/11 13:56:20;;;;;;;;;;;;;;;25.89;31.28;100573.85;1798339;79;20201;-80
2021/05/11 14:04:34;;;;;;;;;;;;;;;25.91;31.65;100570.33;1789523;79;20257;-80
2021/05/11 14:07:11;;;;;;;;;;;;;;;25.90;31.47;100573.63;1862187;76;20151;-79
2021/05/11 14:09:46;;;;;;;;;;;;;;;25.87;31.57;100568.63;1798673;77;20305;-79
2021/05/11 14:12:22;;;;;;;;;;;;;;;25.88;31.13;100577.14;1834738;76;20195;-79
2021/05/11 14:14:56;;;;;;;;;;;;;;;25.96;31.04;100577.24;1801679;77;20322;-79
2021/05/11 14:17:32;;;;;;;;;;;;;;;25.97;30.91;100577.52;1798277;77;20422;-81
2021/05/11 14:20:08;;;;;;;;;;;;;;;26.03;31.01;100617.69;1806587;79;20207;-80
2021/05/11 14:22:42;;;;;;;;;;;;;;;25.99;33.18;100622.03;1843188;77;20184;-79
2021/05/11 14:25:17;;;;;;;;;;;;;;;25.88;34.77;100639.44;1870037;75;20226;-80
2021/05/11 14:27:53;;;;;;;;;;;;;;;25.60;35.56;100652.75;1802316;77;20601;-79
2021/05/11 14:30:29;;;;;;;;;;;;;;;25.39;36.05;100661.22;1836673;76;20176;-78
2021/05/11 14:33:04;;;;;;;;;;;;;;;25.15;36.92;100686.08;1814197;78;20235;-78
2021/05/11 14:35:40;;;;;;;;;;;;;;;24.89;37.92;100699.02;1819084;77;20269;-78
2021/05/11 14:38:15;;;;;;;;;;;;;;;24.66;38.75;100711.75;1871401;76;20187;-79
2021/05/11 14:40:52;;;;;;;;;;;;;;;24.51;39.23;100718.32;1812011;79;20455;-79
2021/05/11 14:43:26;;;;;;;;;;;;;;;24.35;39.47;100716.34;1856082;76;20245;-79
2021/05/11 14:46:02;;;;;;;;;;;;;;;24.19;40.22;100699.58;1808438;78;20160;-78
2021/05/11 14:48:42;;;;;;;;;;;;;;;23.89;40.89;100690.20;1845827;75;20295;-78
2021/05/11 14:51:16;;;;;;;;;;;;;;;23.65;41.63;100687.19;1802722;79;20532;-78
2021/05/11 14:53:57;;;;;;;;;;;;;;;23.43;42.13;100676.81;1820249;77;20191;-78
2021/05/11 14:56:38;;;;;;;;;;;;;;;23.29;42.44;100674.84;1809402;77;20183;-80
2021/05/11 14:59:10;;;;;;;;;;;;;;;23.19;42.72;100671.88;1809799;77;20210;-79
2021/05/11 15:01:43;;;;;;;;;;;;;;;23.14;42.66;100681.86;1879828;74;20245;-78
2021/05/11 15:04:18;;;;;;;;;;;;;;;23.04;43.08;100686.53;1854046;77;20205;-78
2021/05/11 15:06:52;;;;;;;;;;;;;;;22.91;43.48;100684.84;1808699;78;20230;-78
2021/05/11 15:09:29;;;;;;;;;;;;;;;22.77;43.77;100703.30;1879785;75;20735;-78
2021/05/11 15:12:05;;;;;;;;;;;;;;;22.70;43.89;100696.25;1884565;76;20165;-79
2021/05/11 15:14:50;;;;;;;;;;;;;;;22.62;43.86;100698.80;1851845;77;20158;-80
2021/05/11 15:20:05;;;;;;;;;;;;;;;22.55;44.15;100704.87;1801506;77;20213;-80
2021/05/11 15:22:41;;;;;;;;;;;;;;;22.51;44.14;100698.20;1823288;77;20227;-77
2021/05/11 15:25:16;;;;;;;;;;;;;;;22.49;43.93;100707.17;1842251;77;20169;-79
2021/05/11 15:27:54;;;;;;;;;;;;;;;22.43;43.75;100706.70;1853828;75;20183;-78
2021/05/11 15:30:27;;;;;;;;;;;;;;;22.38;43.66;100699.21;1812289;77;20258;-79
2021/05/11 15:33:03;;;;;;;;;;;;;;;22.38;43.58;100694.28;1854907;77;20165;-79
2021/05/11 15:35:47;;;;;;;;;;;;;;;22.36;43.60;100701.89;1821393;78;20934;-79
2021/05/11 15:38:23;;;;;;;;;;;;;;;22.44;43.41;100700.21;1809654;77;20238;-79
2021/05/11 15:40:59;;;;;;;;;;;;;;;22.46;43.33;100700.27;1814364;77;20186;-80
2021/05/11 15:43:36;;;;;;;;;;;;;;;22.47;43.35;100705.19;1815580;78;20301;-79
2021/05/11 15:46:11;;;;;;;;;;;;;;;22.47;43.24;100710.11;1812756;77;20195;-80
2021/05/11 15:48:45;;;;;;;;;;;;;;;22.49;43.11;100718.09;1791397;77;20280;-80
2021/05/11 15:51:26;;;;;;;;;;;;;;;22.53;42.89;100721.50;1854099;77;20263;-81
2021/05/11 16:04:23;;;;;;;;;;;;;;;22.51;42.48;100728.23;1791797;78;20168;-79
2021/05/11 16:06:59;;;;;;;;;;;;;;;22.53;42.51;100726.13;1811614;79;20250;-80
2021/05/11 16:09:33;;;;;;;;;;;;;;;22.56;42.37;100726.17;1890206;76;20233;-79
2021/05/11 16:12:14;;;;;;;;;;;;;;;22.54;42.32;100725.88;1812721;77;20551;-78
2021/05/11 16:14:55;;;;;;;;;;;;;;;22.51;42.40;100727.70;1853595;77;20272;-79
2021/05/11 16:17:37;;;;;;;;;;;;;;;22.51;42.43;100724.14;1846541;77;20199;-78
2021/05/11 16:20:17;;;;;;;;;;;;;;;22.49;42.55;100717.56;1811074;77;20269;-79
2021/05/11 16:22:51;;;;;;;;;;;;;;;22.50;42.63;100726.04;1813087;77;20488;-78
2021/05/11 16:25:25;;;;;;;;;;;;;;;22.52;42.55;100724.44;1882169;74;20205;-78
2021/05/11 16:28:04;;;;;;;;;;;;;;;22.52;42.62;100720.34;1853214;77;20248;-79
2021/05/11 16:30:40;;;;;;;;;;;;;;;22.52;42.67;100721.17;1817101;79;20172;-79
2021/05/11 16:33:18;;;;;;;;;;;;;;;22.52;42.69;100725.27;1845826;76;20159;-80
2021/05/11 16:35:53;;;;;;;;;;;;;;;22.54;42.70;100723.69;1807377;79;20201;-79
2021/05/11 16:38:36;;;;;;;;;;;;;;;22.54;42.66;100718.23;1838094;77;20195;-79
2021/05/11 16:41:11;;;;;;;;;;;;;;;22.56;42.45;100734.37;1803071;77;20233;-79
2021/05/11 16:43:45;;;;;;;;;;;;;;;22.55;42.32;100725.35;1817932;79;20582;-78
2021/05/11 16:56:56;;;;;;;;;;;;;;;22.63;42.25;100711.38;1883507;76;20213;-78
2021/05/11 16:59:30;;;;;;;;;;;;;;;22.61;42.33;100707.20;1838437;77;20808;-79
2021/05/11 17:02:04;;;;;;;;;;;;;;;22.60;42.42;100711.84;1811885;77;20586;-77
2021/05/11 17:04:38;;;;;;;;;;;;;;;22.61;42.36;100711.30;1852754;77;20189;-78
2021/05/11 17:07:14;;;;;;;;;;;;;;;22.61;42.44;100710.77;1802377;77;20211;-79
2021/05/11 17:09:51;;;;;;;;;;;;;;;22.61;42.43;100707.20;1812324;77;21217;-79
2021/05/11 17:12:31;;;;;;;;;;;;;;;22.61;42.50;100705.30;1809342;77;20242;-79
2021/05/11 17:15:09;;;;;;;;;;;;;;;22.60;42.55;100702.28;1844754;77;20169;-78
2021/05/11 17:17:45;;;;;;;;;;;;;;;22.59;42.62;100698.42;1853945;77;20232;-78
2021/05/11 17:20:21;;;;;;;;;;;;;;;22.59;42.67;100701.16;1813862;77;20488;-79
2021/05/11 17:22:56;;;;;;;;;;;;;;;22.57;42.67;100695.08;1798690;77;20197;-80
2021/05/11 17:25:31;;;;;;;;;;;;;;;22.54;42.69;100697.75;1854938;77;20193;-79
2021/05/11 17:28:07;;;;;;;;;;;;;;;22.54;42.74;100695.02;1862484;76;20235;-78
2021/05/11 17:30:40;;;;;;;;;;;;;;;22.54;42.68;100693.66;1826950;77;20525;-77
2021/05/11 17:33:18;;;;;;;;;;;;;;;22.53;42.67;100700.19;1809096;77;20210;-79
2021/05/11 17:35:54;;;;;;;;;;;;;;;22.53;42.54;100705.66;1805228;77;20188;-80
2021/05/11 17:38:31;;;;;;;;;;;;;;;22.50;42.41;100702.84;1803983;77;20184;-80
2021/05/11 17:41:07;;;;;;;;;;;;;;;22.46;42.22;100712.55;1802030;79;20202;-79
2021/05/11 17:44:16;;;;;;;;;;;;;;;22.42;42.22;100709.14;1523298;88;20286;-79
2021/05/11 17:46:49;;;;;;;;;;;;;;;22.39;41.97;100708.23;1499298;89;20216;-78
2021/05/11 17:49:23;;;;;;;;;;;;;;;22.35;41.90;100709.24;1554014;88;20266;-80
2021/05/11 17:51:59;;;;;;;;;;;;;;;22.34;41.89;100706.72;1527578;89;20235;-78
2021/05/11 17:54:34;;;;;;;;;;;;;;;22.34;41.81;100702.09;1554555;88;20645;-77
2021/05/11 17:57:09;;;;;;;;;;;;;;;22.35;41.72;100705.69;1499349;89;20542;-79
2021/05/11 17:59:45;;;;;;;;;;;;;;;22.31;41.73;100703.94;1499283;89;20284;-77
2021/05/11 18:02:20;;;;;;;;;;;;;;;22.29;41.72;100703.31;1536090;89;20225;-78
2021/05/11 18:04:55;;;;;;;;;;;;;;;22.29;41.75;100708.24;1495764;89;20347;-78
2021/05/11 18:07:31;;;;;;;;;;;;;;;22.24;41.80;100705.37;1507539;89;20555;-78
2021/05/11 18:10:06;;;;;;;;;;;;;;;22.23;41.85;100713.27;1510590;90;20430;-76
2021/05/11 18:12:41;;;;;;;;;;;;;;;22.25;41.77;100704.84;1508185;90;20498;-77
2021/05/11 18:15:16;;;;;;;;;;;;;;;22.24;41.77;100710.83;1582842;86;20288;-78